sensor_id;sensor_type;location;lat;lon;timestamp;temperature;humidity
17348;DHT22;8791;50.876;4.342;2023-06-19T00:01:13;20.30;99.90
17348;DHT22;8791;50.876;4.342;2023-06-19T00:03:40;20.30;99.90
17348;DHT22;8791;50.876;4.342;2023-06-19T00:06:07;20.20;99.90
17348;DHT22;8791;50.876;4.342;2023-06-19T00:08:34;20.10;99.90
17348;DHT22;8791;50.876;4.342;2023-06-19T00:11:02;20.20;99.90
17348;DHT22;8791;50.876;4.342;2023-06-19T00:13:30;20.20;99.90
17348;DHT22;8791;50.876;4.342;2023-06-19T00:15:57;20.20;99.90
17348;DHT22;8791;50.876;4.342;2023-06-19T00:18:25;20.20;99.90
17348;DHT22;8791;50.876;4.342;2023-06-19T00:20:52;20.30;99.90
17348;DHT22;8791;50.876;4.342;2023-06-19T00:23:21;20.30;99.90
17348;DHT22;8791;50.876;4.342;2023-06-19T00:25:48;20.20;99.90
17348;DHT22;8791;50.876;4.342;2023-06-19T00:28:15;20.20;99.90
17348;DHT22;8791;50.876;4.342;2023-06-19T00:30:46;20.20;99.90
17348;DHT22;8791;50.876;4.342;2023-06-19T00:33:13;20.30;99.90
17348;DHT22;8791;50.876;4.342;2023-06-19T00:35:40;20.10;99.90
17348;DHT22;8791;50.876;4.342;2023-06-19T00:38:07;20.10;99.90
17348;DHT22;8791;50.876;4.342;2023-06-19T00:40:34;20.30;99.90
17348;DHT22;8791;50.876;4.342;2023-06-19T00:43:01;20.40;99.90
17348;DHT22;8791;50.876;4.342;2023-06-19T00:45:29;20.30;99.90
17348;DHT22;8791;50.876;4.342;2023-06-19T00:47:59;20.20;99.90
17348;DHT22;8791;50.876;4.342;2023-06-19T00:50:27;20.00;99.90
17348;DHT22;8791;50.876;4.342;2023-06-19T00:52:54;20.10;99.90
17348;DHT22;8791;50.876;4.342;2023-06-19T00:55:21;20.30;99.90
17348;DHT22;8791;50.876;4.342;2023-06-19T00:57:49;20.20;99.90
17348;DHT22;8791;50.876;4.342;2023-06-19T01:00:18;20.10;99.90
17348;DHT22;8791;50.876;4.342;2023-06-19T01:02:46;20.10;99.90
17348;DHT22;8791;50.876;4.342;2023-06-19T01:05:15;20.10;99.90
17348;DHT22;8791;50.876;4.342;2023-06-19T01:07:46;20.10;99.90
17348;DHT22;8791;50.876;4.342;2023-06-19T01:10:16;20.20;99.90
17348;DHT22;8791;50.876;4.342;2023-06-19T01:12:54;20.30;99.90
17348;DHT22;8791;50.876;4.342;2023-06-19T01:15:23;20.20;99.90
17348;DHT22;8791;50.876;4.342;2023-06-19T01:17:50;20.30;99.90
17348;DHT22;8791;50.876;4.342;2023-06-19T01:20:19;20.10;99.90
17348;DHT22;8791;50.876;4.342;2023-06-19T01:22:47;20.20;99.90
17348;DHT22;8791;50.876;4.342;2023-06-19T01:25:14;20.10;99.90
17348;DHT22;8791;50.876;4.342;2023-06-19T01:27:42;20.10;99.90
17348;DHT22;8791;50.876;4.342;2023-06-19T01:30:10;20.10;99.90
17348;DHT22;8791;50.876;4.342;2023-06-19T01:32:44;20.10;99.90
17348;DHT22;8791;50.876;4.342;2023-06-19T01:35:13;20.20;99.90
17348;DHT22;8791;50.876;4.342;2023-06-19T01:37:41;20.00;99.90
17348;DHT22;8791;50.876;4.342;2023-06-19T01:40:10;19.90;99.90
17348;DHT22;8791;50.876;4.342;2023-06-19T01:42:38;19.90;99.90
17348;DHT22;8791;50.876;4.342;2023-06-19T01:45:07;19.90;99.90
17348;DHT22;8791;50.876;4.342;2023-06-19T01:47:34;20.00;99.90
17348;DHT22;8791;50.876;4.342;2023-06-19T01:50:01;20.00;99.90
17348;DHT22;8791;50.876;4.342;2023-06-19T01:52:28;20.10;99.90
17348;DHT22;8791;50.876;4.342;2023-06-19T01:54:55;20.00;99.90
17348;DHT22;8791;50.876;4.342;2023-06-19T01:57:23;20.10;99.90
17348;DHT22;8791;50.876;4.342;2023-06-19T01:59:51;20.00;99.90
17348;DHT22;8791;50.876;4.342;2023-06-19T02:02:17;20.10;99.90
17348;DHT22;8791;50.876;4.342;2023-06-19T02:04:44;20.30;99.90
17348;DHT22;8791;50.876;4.342;2023-06-19T02:07:11;20.40;99.90
17348;DHT22;8791;50.876;4.342;2023-06-19T02:09:38;20.30;99.90
17348;DHT22;8791;50.876;4.342;2023-06-19T02:12:07;20.40;99.90
17348;DHT22;8791;50.876;4.342;2023-06-19T02:14:36;20.20;99.90
17348;DHT22;8791;50.876;4.342;2023-06-19T02:17:03;20.20;99.90
17348;DHT22;8791;50.876;4.342;2023-06-19T02:19:29;20.20;99.90
17348;DHT22;8791;50.876;4.342;2023-06-19T02:21:56;20.20;99.90
17348;DHT22;8791;50.876;4.342;2023-06-19T02:24:23;20.20;99.90
17348;DHT22;8791;50.876;4.342;2023-06-19T02:26:50;20.20;99.90
17348;DHT22;8791;50.876;4.342;2023-06-19T02:29:17;20.20;99.90
17348;DHT22;8791;50.876;4.342;2023-06-19T02:31:46;20.20;99.90
17348;DHT22;8791;50.876;4.342;2023-06-19T02:34:12;20.20;99.90
17348;DHT22;8791;50.876;4.342;2023-06-19T02:36:39;20.10;99.90
17348;DHT22;8791;50.876;4.342;2023-06-19T02:39:07;19.80;99.90
17348;DHT22;8791;50.876;4.342;2023-06-19T02:41:34;19.90;99.90
17348;DHT22;8791;50.876;4.342;2023-06-19T02:44:03;19.90;99.90
17348;DHT22;8791;50.876;4.342;2023-06-19T02:46:30;20.00;99.90
17348;DHT22;8791;50.876;4.342;2023-06-19T02:48:59;20.10;99.90
17348;DHT22;8791;50.876;4.342;2023-06-19T02:51:26;20.20;99.90
17348;DHT22;8791;50.876;4.342;2023-06-19T02:53:53;20.20;99.90
17348;DHT22;8791;50.876;4.342;2023-06-19T02:56:20;20.30;99.90
17348;DHT22;8791;50.876;4.342;2023-06-19T02:58:47;20.50;99.90
17348;DHT22;8791;50.876;4.342;2023-06-19T03:01:14;20.40;99.90
17348;DHT22;8791;50.876;4.342;2023-06-19T03:03:41;20.50;99.90
17348;DHT22;8791;50.876;4.342;2023-06-19T03:06:09;20.50;99.90
17348;DHT22;8791;50.876;4.342;2023-06-19T03:08:37;20.60;99.90
17348;DHT22;8791;50.876;4.342;2023-06-19T03:11:03;20.60;99.90
17348;DHT22;8791;50.876;4.342;2023-06-19T03:13:35;20.50;99.90
17348;DHT22;8791;50.876;4.342;2023-06-19T03:16:02;20.70;99.90
17348;DHT22;8791;50.876;4.342;2023-06-19T03:18:29;20.60;99.90
17348;DHT22;8791;50.876;4.342;2023-06-19T03:20:56;20.70;99.90
17348;DHT22;8791;50.876;4.342;2023-06-19T03:23:24;20.50;99.90
17348;DHT22;8791;50.876;4.342;2023-06-19T03:25:50;20.50;99.90
17348;DHT22;8791;50.876;4.342;2023-06-19T03:28:17;20.70;99.90
17348;DHT22;8791;50.876;4.342;2023-06-19T03:30:44;20.60;99.90
17348;DHT22;8791;50.876;4.342;2023-06-19T03:33:11;20.50;99.90
17348;DHT22;8791;50.876;4.342;2023-06-19T03:35:38;20.50;99.90
17348;DHT22;8791;50.876;4.342;2023-06-19T03:38:06;20.50;99.90
17348;DHT22;8791;50.876;4.342;2023-06-19T03:40:34;20.40;99.90
17348;DHT22;8791;50.876;4.342;2023-06-19T03:43:01;20.40;99.90
17348;DHT22;8791;50.876;4.342;2023-06-19T03:45:28;20.50;99.90
17348;DHT22;8791;50.876;4.342;2023-06-19T03:47:55;20.50;99.90
17348;DHT22;8791;50.876;4.342;2023-06-19T03:50:21;20.30;99.90
17348;DHT22;8791;50.876;4.342;2023-06-19T03:52:49;20.40;99.90
17348;DHT22;8791;50.876;4.342;2023-06-19T03:55:17;20.20;99.90
17348;DHT22;8791;50.876;4.342;2023-06-19T03:57:45;20.30;99.90
17348;DHT22;8791;50.876;4.342;2023-06-19T04:00:13;20.20;99.90
17348;DHT22;8791;50.876;4.342;2023-06-19T04:02:40;20.30;99.90
17348;DHT22;8791;50.876;4.342;2023-06-19T04:05:07;20.20;99.90
17348;DHT22;8791;50.876;4.342;2023-06-19T04:07:34;20.30;99.90
17348;DHT22;8791;50.876;4.342;2023-06-19T04:10:02;20.30;99.90
17348;DHT22;8791;50.876;4.342;2023-06-19T04:12:29;20.10;99.90
17348;DHT22;8791;50.876;4.342;2023-06-19T04:14:57;20.10;99.90
17348;DHT22;8791;50.876;4.342;2023-06-19T04:17:24;20.10;99.90
17348;DHT22;8791;50.876;4.342;2023-06-19T04:19:51;20.00;99.90
17348;DHT22;8791;50.876;4.342;2023-06-19T04:22:18;19.90;99.90
17348;DHT22;8791;50.876;4.342;2023-06-19T04:24:44;19.90;99.90
17348;DHT22;8791;50.876;4.342;2023-06-19T04:27:11;20.00;99.90
17348;DHT22;8791;50.876;4.342;2023-06-19T04:29:38;20.00;99.90
17348;DHT22;8791;50.876;4.342;2023-06-19T04:32:07;20.20;99.90
17348;DHT22;8791;50.876;4.342;2023-06-19T04:34:37;20.40;99.90
17348;DHT22;8791;50.876;4.342;2023-06-19T04:37:04;20.70;99.90
17348;DHT22;8791;50.876;4.342;2023-06-19T04:39:31;20.80;99.90
17348;DHT22;8791;50.876;4.342;2023-06-19T04:41:58;21.20;99.90
17348;DHT22;8791;50.876;4.342;2023-06-19T04:44:25;21.60;99.90
17348;DHT22;8791;50.876;4.342;2023-06-19T04:46:52;21.90;99.90
17348;DHT22;8791;50.876;4.342;2023-06-19T04:49:27;22.10;99.90
17348;DHT22;8791;50.876;4.342;2023-06-19T04:51:55;22.00;99.90
17348;DHT22;8791;50.876;4.342;2023-06-19T04:54:22;21.80;99.90
17348;DHT22;8791;50.876;4.342;2023-06-19T04:56:49;22.00;99.90
17348;DHT22;8791;50.876;4.342;2023-06-19T04:59:16;22.20;99.90
17348;DHT22;8791;50.876;4.342;2023-06-19T05:01:44;22.10;99.90
17348;DHT22;8791;50.876;4.342;2023-06-19T05:04:11;22.00;99.90
17348;DHT22;8791;50.876;4.342;2023-06-19T05:06:39;21.90;99.90
17348;DHT22;8791;50.876;4.342;2023-06-19T05:09:08;21.60;99.90
17348;DHT22;8791;50.876;4.342;2023-06-19T05:11:35;22.00;99.90
17348;DHT22;8791;50.876;4.342;2023-06-19T05:14:02;22.30;99.90
17348;DHT22;8791;50.876;4.342;2023-06-19T05:16:28;21.80;99.90
17348;DHT22;8791;50.876;4.342;2023-06-19T05:18:55;21.60;99.90
17348;DHT22;8791;50.876;4.342;2023-06-19T05:21:22;21.20;99.90
17348;DHT22;8791;50.876;4.342;2023-06-19T05:23:50;20.70;99.90
17348;DHT22;8791;50.876;4.342;2023-06-19T05:26:19;20.90;99.90
17348;DHT22;8791;50.876;4.342;2023-06-19T05:28:47;20.80;99.90
17348;DHT22;8791;50.876;4.342;2023-06-19T05:31:14;20.60;99.90
17348;DHT22;8791;50.876;4.342;2023-06-19T05:33:41;20.60;99.90
17348;DHT22;8791;50.876;4.342;2023-06-19T05:36:07;20.70;99.90
17348;DHT22;8791;50.876;4.342;2023-06-19T05:38:34;20.50;99.90
17348;DHT22;8791;50.876;4.342;2023-06-19T05:41:03;20.50;99.90
17348;DHT22;8791;50.876;4.342;2023-06-19T05:43:30;20.30;99.90
17348;DHT22;8791;50.876;4.342;2023-06-19T05:45:57;20.20;99.90
17348;DHT22;8791;50.876;4.342;2023-06-19T05:48:24;20.00;99.90
17348;DHT22;8791;50.876;4.342;2023-06-19T05:50:51;19.80;99.90
17348;DHT22;8791;50.876;4.342;2023-06-19T05:53:18;19.60;99.90
17348;DHT22;8791;50.876;4.342;2023-06-19T05:55:45;19.50;99.90
17348;DHT22;8791;50.876;4.342;2023-06-19T05:58:13;19.50;99.90
17348;DHT22;8791;50.876;4.342;2023-06-19T06:00:40;19.30;99.90
17348;DHT22;8791;50.876;4.342;2023-06-19T06:03:07;19.30;99.90
17348;DHT22;8791;50.876;4.342;2023-06-19T06:05:34;19.20;99.90
17348;DHT22;8791;50.876;4.342;2023-06-19T06:08:02;19.40;99.90
17348;DHT22;8791;50.876;4.342;2023-06-19T06:10:31;19.60;99.90
17348;DHT22;8791;50.876;4.342;2023-06-19T06:12:58;19.80;99.90
17348;DHT22;8791;50.876;4.342;2023-06-19T06:15:26;19.90;99.90
17348;DHT22;8791;50.876;4.342;2023-06-19T06:17:54;19.90;99.90
17348;DHT22;8791;50.876;4.342;2023-06-19T06:20:21;20.00;99.90
17348;DHT22;8791;50.876;4.342;2023-06-19T06:22:48;20.00;99.90
17348;DHT22;8791;50.876;4.342;2023-06-19T06:25:15;20.00;99.90
17348;DHT22;8791;50.876;4.342;2023-06-19T06:27:41;20.10;99.90
17348;DHT22;8791;50.876;4.342;2023-06-19T06:30:09;20.10;99.90
17348;DHT22;8791;50.876;4.342;2023-06-19T06:32:39;20.00;99.90
17348;DHT22;8791;50.876;4.342;2023-06-19T06:35:07;19.90;99.90
17348;DHT22;8791;50.876;4.342;2023-06-19T06:37:33;19.90;99.90
17348;DHT22;8791;50.876;4.342;2023-06-19T06:40:00;19.90;99.90
17348;DHT22;8791;50.876;4.342;2023-06-19T06:42:29;19.90;99.90
17348;DHT22;8791;50.876;4.342;2023-06-19T06:44:56;20.00;99.90
17348;DHT22;8791;50.876;4.342;2023-06-19T06:47:23;19.80;99.90
17348;DHT22;8791;50.876;4.342;2023-06-19T06:49:51;19.80;99.90
17348;DHT22;8791;50.876;4.342;2023-06-19T06:52:18;19.80;99.90
17348;DHT22;8791;50.876;4.342;2023-06-19T06:54:45;19.60;99.90
17348;DHT22;8791;50.876;4.342;2023-06-19T06:57:12;19.60;99.90
17348;DHT22;8791;50.876;4.342;2023-06-19T06:59:39;19.60;99.90
17348;DHT22;8791;50.876;4.342;2023-06-19T07:02:06;19.70;99.90
17348;DHT22;8791;50.876;4.342;2023-06-19T07:04:32;20.00;99.90
17348;DHT22;8791;50.876;4.342;2023-06-19T07:07:01;20.10;99.90
17348;DHT22;8791;50.876;4.342;2023-06-19T07:09:29;20.20;99.90
17348;DHT22;8791;50.876;4.342;2023-06-19T07:11:56;20.00;99.90
17348;DHT22;8791;50.876;4.342;2023-06-19T07:14:23;19.90;99.90
17348;DHT22;8791;50.876;4.342;2023-06-19T07:16:50;19.80;99.90
17348;DHT22;8791;50.876;4.342;2023-06-19T07:19:17;19.90;99.90
17348;DHT22;8791;50.876;4.342;2023-06-19T07:21:44;20.00;99.90
17348;DHT22;8791;50.876;4.342;2023-06-19T07:24:16;20.10;99.90
17348;DHT22;8791;50.876;4.342;2023-06-19T07:26:43;20.40;99.90
17348;DHT22;8791;50.876;4.342;2023-06-19T07:29:12;20.30;99.90
17348;DHT22;8791;50.876;4.342;2023-06-19T07:31:39;20.50;99.90
17348;DHT22;8791;50.876;4.342;2023-06-19T07:34:08;20.50;99.90
17348;DHT22;8791;50.876;4.342;2023-06-19T07:36:35;20.60;99.90
17348;DHT22;8791;50.876;4.342;2023-06-19T07:39:02;20.70;99.90
17348;DHT22;8791;50.876;4.342;2023-06-19T07:41:30;20.90;99.90
17348;DHT22;8791;50.876;4.342;2023-06-19T07:43:57;21.00;99.90
17348;DHT22;8791;50.876;4.342;2023-06-19T07:46:24;21.10;99.90
17348;DHT22;8791;50.876;4.342;2023-06-19T07:48:51;20.90;99.90
17348;DHT22;8791;50.876;4.342;2023-06-19T07:51:18;21.00;99.90
17348;DHT22;8791;50.876;4.342;2023-06-19T07:53:45;20.80;99.90
17348;DHT22;8791;50.876;4.342;2023-06-19T07:56:12;20.60;99.90
17348;DHT22;8791;50.876;4.342;2023-06-19T07:58:40;21.00;99.90
17348;DHT22;8791;50.876;4.342;2023-06-19T08:01:07;21.10;99.90
17348;DHT22;8791;50.876;4.342;2023-06-19T08:03:34;21.10;99.90
17348;DHT22;8791;50.876;4.342;2023-06-19T08:06:01;21.40;99.90
17348;DHT22;8791;50.876;4.342;2023-06-19T08:08:28;21.70;99.90
17348;DHT22;8791;50.876;4.342;2023-06-19T08:10:55;21.80;99.90
17348;DHT22;8791;50.876;4.342;2023-06-19T08:13:21;21.70;99.90
17348;DHT22;8791;50.876;4.342;2023-06-19T08:15:50;21.70;99.90
17348;DHT22;8791;50.876;4.342;2023-06-19T08:18:17;22.00;99.90
17348;DHT22;8791;50.876;4.342;2023-06-19T08:20:44;22.20;99.90
17348;DHT22;8791;50.876;4.342;2023-06-19T08:23:10;22.30;99.90
17348;DHT22;8791;50.876;4.342;2023-06-19T08:25:37;21.80;99.90
17348;DHT22;8791;50.876;4.342;2023-06-19T08:28:04;22.00;99.90
17348;DHT22;8791;50.876;4.342;2023-06-19T08:30:31;22.30;99.90
17348;DHT22;8791;50.876;4.342;2023-06-19T08:32:59;22.20;99.90
17348;DHT22;8791;50.876;4.342;2023-06-19T08:35:26;22.30;99.90
17348;DHT22;8791;50.876;4.342;2023-06-19T08:37:53;22.50;99.90
17348;DHT22;8791;50.876;4.342;2023-06-19T08:40:21;22.40;99.90
17348;DHT22;8791;50.876;4.342;2023-06-19T08:42:48;22.20;99.90
17348;DHT22;8791;50.876;4.342;2023-06-19T08:45:15;22.40;99.90
17348;DHT22;8791;50.876;4.342;2023-06-19T08:47:46;22.70;99.90
17348;DHT22;8791;50.876;4.342;2023-06-19T08:50:15;22.90;99.90
17348;DHT22;8791;50.876;4.342;2023-06-19T08:52:42;23.10;99.90
17348;DHT22;8791;50.876;4.342;2023-06-19T08:55:09;23.20;99.90
17348;DHT22;8791;50.876;4.342;2023-06-19T08:57:37;22.90;99.90
17348;DHT22;8791;50.876;4.342;2023-06-19T09:00:06;22.70;99.90
17348;DHT22;8791;50.876;4.342;2023-06-19T09:02:40;22.60;99.90
17348;DHT22;8791;50.876;4.342;2023-06-19T09:05:12;22.50;99.90
17348;DHT22;8791;50.876;4.342;2023-06-19T09:07:41;22.70;99.90
17348;DHT22;8791;50.876;4.342;2023-06-19T09:10:15;22.70;99.90
17348;DHT22;8791;50.876;4.342;2023-06-19T09:12:43;22.40;99.90
17348;DHT22;8791;50.876;4.342;2023-06-19T09:15:14;22.50;99.90
17348;DHT22;8791;50.876;4.342;2023-06-19T09:17:41;22.60;99.90
17348;DHT22;8791;50.876;4.342;2023-06-19T09:20:09;22.30;99.90
17348;DHT22;8791;50.876;4.342;2023-06-19T09:22:37;22.20;99.90
17348;DHT22;8791;50.876;4.342;2023-06-19T09:25:06;22.40;99.90
17348;DHT22;8791;50.876;4.342;2023-06-19T09:27:35;22.70;99.90
17348;DHT22;8791;50.876;4.342;2023-06-19T09:30:04;22.70;99.90
17348;DHT22;8791;50.876;4.342;2023-06-19T09:32:31;22.70;99.90
17348;DHT22;8791;50.876;4.342;2023-06-19T09:34:58;23.00;99.90
17348;DHT22;8791;50.876;4.342;2023-06-19T09:37:27;23.20;99.90
17348;DHT22;8791;50.876;4.342;2023-06-19T09:39:55;23.10;99.90
17348;DHT22;8791;50.876;4.342;2023-06-19T09:42:27;23.20;99.90
17348;DHT22;8791;50.876;4.342;2023-06-19T09:44:59;23.50;99.90
17348;DHT22;8791;50.876;4.342;2023-06-19T09:47:30;23.20;99.90
17348;DHT22;8791;50.876;4.342;2023-06-19T09:49:57;23.30;99.90
17348;DHT22;8791;50.876;4.342;2023-06-19T09:52:26;23.30;99.90
17348;DHT22;8791;50.876;4.342;2023-06-19T09:54:54;23.60;99.90
17348;DHT22;8791;50.876;4.342;2023-06-19T09:57:22;23.70;99.90
17348;DHT22;8791;50.876;4.342;2023-06-19T09:59:53;23.90;99.90
17348;DHT22;8791;50.876;4.342;2023-06-19T10:02:22;24.20;99.90
17348;DHT22;8791;50.876;4.342;2023-06-19T10:04:52;24.30;99.90
17348;DHT22;8791;50.876;4.342;2023-06-19T10:07:21;24.20;99.90
17348;DHT22;8791;50.876;4.342;2023-06-19T10:10:02;23.80;99.90
17348;DHT22;8791;50.876;4.342;2023-06-19T10:12:36;23.40;99.90
17348;DHT22;8791;50.876;4.342;2023-06-19T10:15:16;23.60;99.90
17348;DHT22;8791;50.876;4.342;2023-06-19T10:17:46;23.80;99.90
17348;DHT22;8791;50.876;4.342;2023-06-19T10:20:27;23.60;99.90
17348;DHT22;8791;50.876;4.342;2023-06-19T10:23:00;23.80;99.90
17348;DHT22;8791;50.876;4.342;2023-06-19T10:25:31;23.90;99.90
17348;DHT22;8791;50.876;4.342;2023-06-19T10:27:59;24.10;99.90
17348;DHT22;8791;50.876;4.342;2023-06-19T10:30:28;24.20;99.90
17348;DHT22;8791;50.876;4.342;2023-06-19T10:32:56;24.40;99.90
17348;DHT22;8791;50.876;4.342;2023-06-19T10:35:23;24.40;99.90
17348;DHT22;8791;50.876;4.342;2023-06-19T10:37:50;24.40;99.90
17348;DHT22;8791;50.876;4.342;2023-06-19T10:40:17;24.20;99.90
17348;DHT22;8791;50.876;4.342;2023-06-19T10:42:45;24.20;99.90
17348;DHT22;8791;50.876;4.342;2023-06-19T10:45:14;24.40;99.90
17348;DHT22;8791;50.876;4.342;2023-06-19T10:47:47;24.40;99.90
17348;DHT22;8791;50.876;4.342;2023-06-19T10:50:15;24.40;99.90
17348;DHT22;8791;50.876;4.342;2023-06-19T10:52:43;24.30;99.90
17348;DHT22;8791;50.876;4.342;2023-06-19T10:55:11;24.30;99.90
17348;DHT22;8791;50.876;4.342;2023-06-19T10:57:38;24.50;99.90
17348;DHT22;8791;50.876;4.342;2023-06-19T11:00:06;24.50;99.90
17348;DHT22;8791;50.876;4.342;2023-06-19T11:02:41;24.70;99.90
17348;DHT22;8791;50.876;4.342;2023-06-19T11:05:11;24.70;99.90
17348;DHT22;8791;50.876;4.342;2023-06-19T11:07:39;24.30;99.90
17348;DHT22;8791;50.876;4.342;2023-06-19T11:10:07;24.40;99.90
17348;DHT22;8791;50.876;4.342;2023-06-19T11:12:34;24.50;99.90
17348;DHT22;8791;50.876;4.342;2023-06-19T11:15:03;24.40;99.90
17348;DHT22;8791;50.876;4.342;2023-06-19T11:17:31;24.60;99.90
17348;DHT22;8791;50.876;4.342;2023-06-19T11:19:58;24.50;99.90
17348;DHT22;8791;50.876;4.342;2023-06-19T11:22:37;24.70;99.90
17348;DHT22;8791;50.876;4.342;2023-06-19T11:25:07;24.70;99.90
17348;DHT22;8791;50.876;4.342;2023-06-19T11:27:36;24.70;99.90
17348;DHT22;8791;50.876;4.342;2023-06-19T11:30:05;24.80;99.90
17348;DHT22;8791;50.876;4.342;2023-06-19T11:32:34;24.70;99.90
17348;DHT22;8791;50.876;4.342;2023-06-19T11:35:08;24.60;99.90
17348;DHT22;8791;50.876;4.342;2023-06-19T11:37:36;24.80;99.90
17348;DHT22;8791;50.876;4.342;2023-06-19T11:40:04;25.10;99.90
17348;DHT22;8791;50.876;4.342;2023-06-19T11:42:48;25.30;99.90
17348;DHT22;8791;50.876;4.342;2023-06-19T11:45:15;25.30;99.90
17348;DHT22;8791;50.876;4.342;2023-06-19T11:47:46;25.30;99.90
17348;DHT22;8791;50.876;4.342;2023-06-19T11:50:13;25.40;99.90
17348;DHT22;8791;50.876;4.342;2023-06-19T11:52:43;25.40;99.90
17348;DHT22;8791;50.876;4.342;2023-06-19T11:55:12;25.50;99.90
17348;DHT22;8791;50.876;4.342;2023-06-19T11:57:39;25.70;99.90
17348;DHT22;8791;50.876;4.342;2023-06-19T12:00:14;25.60;99.90
17348;DHT22;8791;50.876;4.342;2023-06-19T12:02:41;25.80;99.90
17348;DHT22;8791;50.876;4.342;2023-06-19T12:05:08;25.50;99.90
17348;DHT22;8791;50.876;4.342;2023-06-19T12:07:36;25.40;99.90
17348;DHT22;8791;50.876;4.342;2023-06-19T12:10:05;25.40;99.90
17348;DHT22;8791;50.876;4.342;2023-06-19T12:12:36;25.80;99.90
17348;DHT22;8791;50.876;4.342;2023-06-19T12:15:05;26.00;99.90
17348;DHT22;8791;50.876;4.342;2023-06-19T12:17:34;25.90;99.90
17348;DHT22;8791;50.876;4.342;2023-06-19T12:20:01;26.00;99.90
17348;DHT22;8791;50.876;4.342;2023-06-19T12:22:31;25.60;99.90
17348;DHT22;8791;50.876;4.342;2023-06-19T12:24:58;25.50;99.90
17348;DHT22;8791;50.876;4.342;2023-06-19T12:27:26;25.50;99.90
17348;DHT22;8791;50.876;4.342;2023-06-19T12:29:54;25.60;99.90
17348;DHT22;8791;50.876;4.342;2023-06-19T12:32:21;25.70;99.90
17348;DHT22;8791;50.876;4.342;2023-06-19T12:34:48;25.80;99.90
17348;DHT22;8791;50.876;4.342;2023-06-19T12:37:15;25.60;99.90
17348;DHT22;8791;50.876;4.342;2023-06-19T12:39:45;25.60;99.90
17348;DHT22;8791;50.876;4.342;2023-06-19T12:42:11;25.80;99.90
17348;DHT22;8791;50.876;4.342;2023-06-19T12:44:41;25.90;99.90
17348;DHT22;8791;50.876;4.342;2023-06-19T12:47:09;26.10;99.90
17348;DHT22;8791;50.876;4.342;2023-06-19T12:49:37;26.20;99.90
17348;DHT22;8791;50.876;4.342;2023-06-19T12:52:04;26.10;99.90
17348;DHT22;8791;50.876;4.342;2023-06-19T12:54:31;26.20;99.90
17348;DHT22;8791;50.876;4.342;2023-06-19T12:56:58;26.10;99.90
17348;DHT22;8791;50.876;4.342;2023-06-19T12:59:25;26.10;99.90
17348;DHT22;8791;50.876;4.342;2023-06-19T13:01:53;26.20;99.90
17348;DHT22;8791;50.876;4.342;2023-06-19T13:04:20;26.20;99.90
17348;DHT22;8791;50.876;4.342;2023-06-19T13:06:47;26.40;99.90
17348;DHT22;8791;50.876;4.342;2023-06-19T13:09:14;26.70;99.90
17348;DHT22;8791;50.876;4.342;2023-06-19T13:11:41;26.70;99.90
17348;DHT22;8791;50.876;4.342;2023-06-19T13:14:07;26.60;99.90
17348;DHT22;8791;50.876;4.342;2023-06-19T13:16:34;26.50;99.90
17348;DHT22;8791;50.876;4.342;2023-06-19T13:19:03;26.70;99.90
17348;DHT22;8791;50.876;4.342;2023-06-19T13:21:29;26.70;99.90
17348;DHT22;8791;50.876;4.342;2023-06-19T13:23:56;26.70;99.90
17348;DHT22;8791;50.876;4.342;2023-06-19T13:26:23;26.80;99.90
17348;DHT22;8791;50.876;4.342;2023-06-19T13:28:50;27.00;99.90
17348;DHT22;8791;50.876;4.342;2023-06-19T13:31:17;27.10;99.90
17348;DHT22;8791;50.876;4.342;2023-06-19T13:33:44;27.10;99.90
17348;DHT22;8791;50.876;4.342;2023-06-19T13:36:12;27.00;99.90
17348;DHT22;8791;50.876;4.342;2023-06-19T13:38:39;27.00;99.90
17348;DHT22;8791;50.876;4.342;2023-06-19T13:41:05;27.20;99.90
17348;DHT22;8791;50.876;4.342;2023-06-19T13:43:32;26.90;99.90
17348;DHT22;8791;50.876;4.342;2023-06-19T13:45:59;26.80;99.90
17348;DHT22;8791;50.876;4.342;2023-06-19T13:48:28;26.80;99.90
17348;DHT22;8791;50.876;4.342;2023-06-19T13:50:55;26.90;99.90
17348;DHT22;8791;50.876;4.342;2023-06-19T13:53:24;27.10;99.90
17348;DHT22;8791;50.876;4.342;2023-06-19T13:55:54;27.20;99.90
17348;DHT22;8791;50.876;4.342;2023-06-19T13:58:21;27.40;99.90
17348;DHT22;8791;50.876;4.342;2023-06-19T14:00:47;27.40;99.90
17348;DHT22;8791;50.876;4.342;2023-06-19T14:03:14;27.50;99.90
17348;DHT22;8791;50.876;4.342;2023-06-19T14:05:41;27.60;99.90
17348;DHT22;8791;50.876;4.342;2023-06-19T14:08:09;27.60;99.90
17348;DHT22;8791;50.876;4.342;2023-06-19T14:10:37;27.50;99.90
17348;DHT22;8791;50.876;4.342;2023-06-19T14:13:04;27.60;99.90
17348;DHT22;8791;50.876;4.342;2023-06-19T14:15:31;27.60;99.90
17348;DHT22;8791;50.876;4.342;2023-06-19T14:17:57;27.80;99.90
17348;DHT22;8791;50.876;4.342;2023-06-19T14:20:25;27.90;99.90
17348;DHT22;8791;50.876;4.342;2023-06-19T14:22:52;27.80;99.90
17348;DHT22;8791;50.876;4.342;2023-06-19T14:25:18;28.00;99.90
17348;DHT22;8791;50.876;4.342;2023-06-19T14:27:46;27.80;99.90
17348;DHT22;8791;50.876;4.342;2023-06-19T14:30:14;27.90;99.90
17348;DHT22;8791;50.876;4.342;2023-06-19T14:32:41;28.00;99.90
17348;DHT22;8791;50.876;4.342;2023-06-19T14:35:08;28.00;99.90
17348;DHT22;8791;50.876;4.342;2023-06-19T14:37:35;28.10;99.90
17348;DHT22;8791;50.876;4.342;2023-06-19T14:40:02;28.30;99.90
17348;DHT22;8791;50.876;4.342;2023-06-19T14:42:29;28.50;99.90
17348;DHT22;8791;50.876;4.342;2023-06-19T14:44:58;28.50;99.90
17348;DHT22;8791;50.876;4.342;2023-06-19T14:47:24;28.10;99.90
17348;DHT22;8791;50.876;4.342;2023-06-19T14:49:51;28.40;99.90
17348;DHT22;8791;50.876;4.342;2023-06-19T14:52:19;28.40;99.90
17348;DHT22;8791;50.876;4.342;2023-06-19T14:54:46;28.70;99.90
17348;DHT22;8791;50.876;4.342;2023-06-19T14:57:13;28.60;99.90
17348;DHT22;8791;50.876;4.342;2023-06-19T14:59:40;28.80;99.90
17348;DHT22;8791;50.876;4.342;2023-06-19T15:02:09;28.60;99.90
17348;DHT22;8791;50.876;4.342;2023-06-19T15:04:37;28.60;99.90
17348;DHT22;8791;50.876;4.342;2023-06-19T15:07:05;28.70;99.90
17348;DHT22;8791;50.876;4.342;2023-06-19T15:09:32;28.90;99.90
17348;DHT22;8791;50.876;4.342;2023-06-19T15:11:59;28.80;99.90
17348;DHT22;8791;50.876;4.342;2023-06-19T15:14:26;28.70;99.90
17348;DHT22;8791;50.876;4.342;2023-06-19T15:16:53;28.80;99.90
17348;DHT22;8791;50.876;4.342;2023-06-19T15:19:21;29.10;99.90
17348;DHT22;8791;50.876;4.342;2023-06-19T15:21:49;29.30;99.90
17348;DHT22;8791;50.876;4.342;2023-06-19T15:24:17;29.70;99.90
17348;DHT22;8791;50.876;4.342;2023-06-19T15:26:44;30.00;99.90
17348;DHT22;8791;50.876;4.342;2023-06-19T15:29:11;30.20;99.90
17348;DHT22;8791;50.876;4.342;2023-06-19T15:31:38;30.40;99.90
17348;DHT22;8791;50.876;4.342;2023-06-19T15:34:05;30.50;99.90
17348;DHT22;8791;50.876;4.342;2023-06-19T15:36:33;30.80;99.00
17348;DHT22;8791;50.876;4.342;2023-06-19T15:39:01;30.90;98.30
17348;DHT22;8791;50.876;4.342;2023-06-19T15:41:27;31.40;97.00
17348;DHT22;8791;50.876;4.342;2023-06-19T15:43:55;31.30;97.00
17348;DHT22;8791;50.876;4.342;2023-06-19T15:46:22;31.90;94.60
17348;DHT22;8791;50.876;4.342;2023-06-19T15:48:48;32.00;93.70